NORTHEAST SUFFOLK  -  Frost Advisory Frost Advisory     Special Weather Statement Special Weather Statement        NORTHERN NASSAU  -  Frost Advisory Frost Advisory     Special Weather Statement Special Weather Statement        NORTHWEST SUFFOLK  -  Frost Advisory Frost Advisory     Special Weather Statement Special Weather Statement        SOUTHEAST SUFFOLK  -  Frost Advisory Frost Advisory     Special Weather Statement Special Weather Statement        SOUTHERN NASSAU  -  Frost Advisory Frost Advisory     Special Weather Statement Special Weather Statement        SOUTHWEST SUFFOLK  -  Frost Advisory Frost Advisory     Special Weather Statement Special Weather Statement        NORTHERN QUEENS  -  Special Weather Statement Special Weather Statement        SOUTHERN QUEENS  -  Special Weather Statement Special Weather Statement      

Active alerts

Northern Nassau
  Details for Northern Nassau Frost Advisory  +1 additional alert
Southern Nassau
  Details for Southern Nassau Frost Advisory  +1 additional alert
Northwest Suffolk
  Details for Northwest Suffolk Frost Advisory  +1 additional alert
Southwest Suffolk
  Details for Southwest Suffolk Frost Advisory  +1 additional alert
Northeast Suffolk
  Details for Northeast Suffolk Frost Advisory  +1 additional alert
Southeast Suffolk
  Details for Southeast Suffolk Frost Advisory  +1 additional alert
Northern Queens
  Details for Northern Queens Special Weather Statement
Southern Queens
  Details for Southern Queens Special Weather Statement


WXM80 ListenWXM80 Stop

You find our weather info also at:

UK Metoffice

WeatherCloud

Weather Underground

Northeastern Weather Network

AWEKAS

Citizen Weather Observer Program (CWOP)

HAMweather, WeatherForYou, PWS Weather


Weather Underground History page Text

Daily Summary for January 13, 2016 Units:  English    Metric   Both
« Previous Day
Next Day »
Daily Weekly Monthly Yearly Custom
  High: Low: Average:
Temperature: 32.3 °F 24.4 °F 27.2 °F
Dew Point: 18.3 °F 9.5 °F 12.2 °F
Humidity: 63 % 44 % 53 %
Wind Speed: 16.6 mph 1.1 mph 7.7 mph
Wind Gust: 33.4 mph - -
Wind:- - West
Pressure: 29.99 in 29.65 in -
Precipitation: 0.00 in    
Historical Graphs
 
 
Tabular Data for January 13, 2016
Time Temperature Dew Point Pressure Wind Wind Speed Wind Gust Humidity Rainfall Rate (Hourly)
00:04 32.3 °F 18.3 °F 29.65 in SW 14.0 mph 25.0 mph 56 % 0.00 in
00:09 31.7 °F 16.9 °F 29.65 in WSW 13.2 mph 25.3 mph 54 % 0.00 in
00:19 31.3 °F 17.8 °F 29.66 in West 8.1 mph 18.0 mph 57 % 0.00 in
00:24 31.1 °F 16.4 °F 29.66 in WNW 6.4 mph 12.7 mph 54 % 0.00 in
00:30 30.9 °F 16.2 °F 29.67 in WNW 15.9 mph 26.0 mph 54 % 0.00 in
00:35 30.6 °F 15.0 °F 29.67 in West 14.0 mph 20.7 mph 52 % 0.00 in
00:40 30.4 °F 14.4 °F 29.67 in WSW 12.7 mph 24.2 mph 51 % 0.00 in
00:45 30.1 °F 15.0 °F 29.67 in WNW 10.0 mph 18.4 mph 53 % 0.00 in
00:50 30.0 °F 15.3 °F 29.68 in WNW 10.9 mph 21.9 mph 54 % 0.00 in
00:55 30.0 °F 15.8 °F 29.69 in NW 5.2 mph 11.5 mph 55 % 0.00 in
01:00 30.0 °F 15.3 °F 29.69 in SW 9.6 mph 19.6 mph 54 % 0.00 in
01:05 29.8 °F 14.7 °F 29.69 in SW 8.7 mph 15.0 mph 53 % 0.00 in
01:10 29.6 °F 13.7 °F 29.69 in West 16.3 mph 26.5 mph 51 % 0.00 in
01:15 29.5 °F 14.5 °F 29.70 in WSW 6.5 mph 15.0 mph 53 % 0.00 in
01:21 29.3 °F 13.8 °F 29.70 in WSW 12.8 mph 21.9 mph 52 % 0.00 in
01:26 29.2 °F 14.2 °F 29.71 in West 8.2 mph 20.7 mph 53 % 0.00 in
01:31 29.1 °F 13.6 °F 29.70 in West 10.9 mph 16.1 mph 52 % 0.00 in
01:36 29.0 °F 14.0 °F 29.71 in NW 11.8 mph 28.0 mph 53 % 0.00 in
01:41 28.8 °F 13.4 °F 29.72 in SW 8.3 mph 18.0 mph 52 % 0.00 in
01:51 28.6 °F 14.0 °F 29.73 in WSW 8.2 mph 20.7 mph 54 % 0.00 in
01:56 28.6 °F 14.9 °F 29.73 in West 6.0 mph 12.7 mph 56 % 0.00 in
02:01 28.5 °F 13.9 °F 29.73 in SW 12.5 mph 19.6 mph 54 % 0.00 in
02:06 28.5 °F 13.9 °F 29.74 in WNW 7.1 mph 19.6 mph 54 % 0.00 in
02:17 28.4 °F 14.3 °F 29.74 in NNW 11.3 mph 33.4 mph 55 % 0.00 in
02:22 28.3 °F 14.2 °F 29.74 in WNW 8.1 mph 13.0 mph 55 % 0.00 in
02:27 28.3 °F 14.2 °F 29.74 in SW 16.6 mph 29.9 mph 55 % 0.00 in
02:32 28.1 °F 14.0 °F 29.74 in WNW 8.5 mph 22.0 mph 55 % 0.00 in
02:37 28.0 °F 14.3 °F 29.75 in NW 10.1 mph 20.0 mph 56 % 0.00 in
02:42 28.0 °F 14.7 °F 29.75 in WNW 7.9 mph 17.3 mph 57 % 0.00 in
02:47 27.9 °F 14.2 °F 29.76 in NW 7.9 mph 10.4 mph 56 % 0.00 in
02:52 27.8 °F 14.1 °F 29.76 in SW 11.1 mph 16.1 mph 56 % 0.00 in
02:57 27.7 °F 14.0 °F 29.76 in West 11.1 mph 18.4 mph 56 % 0.00 in
03:03 27.6 °F 13.5 °F 29.77 in South 10.3 mph 18.4 mph 55 % 0.00 in
03:08 27.5 °F 14.2 °F 29.77 in WSW 9.2 mph 19.6 mph 57 % 0.00 in
03:13 27.5 °F 13.8 °F 29.77 in WNW 13.2 mph 26.5 mph 56 % 0.00 in
03:18 27.3 °F 14.1 °F 29.77 in WSW 5.5 mph 13.8 mph 57 % 0.00 in
03:23 27.3 °F 13.7 °F 29.77 in WNW 11.3 mph 19.6 mph 56 % 0.00 in
03:28 27.2 °F 14.0 °F 29.77 in WNW 6.1 mph 11.0 mph 57 % 0.00 in
03:33 27.1 °F 13.9 °F 29.77 in SSW 6.3 mph 17.3 mph 57 % 0.00 in
03:38 27.1 °F 13.9 °F 29.77 in WSW 11.7 mph 28.0 mph 57 % 0.00 in
03:48 26.9 °F 13.7 °F 29.78 in NW 9.3 mph 21.9 mph 57 % 0.00 in
03:54 26.8 °F 14.4 °F 29.79 in NW 6.0 mph 13.8 mph 59 % 0.00 in
03:59 26.8 °F 14.0 °F 29.78 in SW 6.2 mph 19.6 mph 58 % 0.00 in
04:04 26.7 °F 14.3 °F 29.78 in WNW 15.3 mph 21.9 mph 59 % 0.00 in
04:09 26.5 °F 13.7 °F 29.78 in West 11.9 mph 24.2 mph 58 % 0.00 in
04:19 26.4 °F 14.0 °F 29.79 in WSW 10.6 mph 17.3 mph 59 % 0.00 in
04:24 26.3 °F 13.9 °F 29.80 in West 12.1 mph 19.6 mph 59 % 0.00 in
04:29 26.3 °F 13.9 °F 29.80 in WNW 6.2 mph 21.9 mph 59 % 0.00 in
04:34 26.3 °F 13.9 °F 29.81 in WSW 8.1 mph 13.8 mph 59 % 0.00 in
04:40 26.1 °F 13.7 °F 29.81 in West 9.4 mph 15.0 mph 59 % 0.00 in
04:45 26.0 °F 13.2 °F 29.81 in SW 11.2 mph 17.3 mph 58 % 0.00 in
04:50 25.9 °F 13.5 °F 29.81 in West 11.6 mph 19.6 mph 59 % 0.00 in
04:55 25.9 °F 13.5 °F 29.82 in NW 7.4 mph 19.0 mph 59 % 0.00 in
05:00 25.8 °F 13.0 °F 29.82 in WSW 11.6 mph 19.6 mph 58 % 0.00 in
05:05 25.7 °F 13.3 °F 29.82 in West 9.8 mph 19.6 mph 59 % 0.00 in
05:10 25.7 °F 13.7 °F 29.83 in West 8.2 mph 12.7 mph 60 % 0.00 in
05:15 25.6 °F 13.6 °F 29.83 in WSW 12.5 mph 19.6 mph 60 % 0.00 in
05:20 25.6 °F 14.0 °F 29.83 in West 9.0 mph 17.3 mph 61 % 0.00 in
05:31 25.5 °F 13.9 °F 29.83 in WNW 3.9 mph 12.7 mph 61 % 0.00 in
05:36 25.4 °F 13.8 °F 29.83 in SW 10.4 mph 16.1 mph 61 % 0.00 in
05:41 25.4 °F 13.8 °F 29.84 in WNW 13.6 mph 26.5 mph 61 % 0.00 in
05:46 25.3 °F 13.7 °F 29.84 in SW 7.2 mph 15.0 mph 61 % 0.00 in
05:51 25.3 °F 13.7 °F 29.84 in West 11.0 mph 24.2 mph 61 % 0.00 in
05:56 25.2 °F 14.0 °F 29.85 in WNW 7.1 mph 16.0 mph 62 % 0.00 in
06:01 25.1 °F 13.9 °F 29.86 in WSW 10.5 mph 18.4 mph 62 % 0.00 in
06:06 25.1 °F 13.9 °F 29.86 in SW 9.4 mph 16.1 mph 62 % 0.00 in
06:11 25.0 °F 14.2 °F 29.86 in WSW 11.6 mph 13.8 mph 63 % 0.00 in
06:16 25.0 °F 14.2 °F 29.86 in South 7.1 mph 15.0 mph 63 % 0.00 in
06:27 24.8 °F 13.2 °F 29.87 in West 10.7 mph 19.6 mph 61 % 0.00 in
06:32 24.8 °F 13.6 °F 29.88 in SSW 9.5 mph 18.4 mph 62 % 0.00 in
06:37 24.8 °F 13.6 °F 29.88 in SW 12.1 mph 20.7 mph 62 % 0.00 in
06:42 24.7 °F 13.1 °F 29.88 in WSW 8.2 mph 18.4 mph 61 % 0.00 in
06:47 24.6 °F 13.8 °F 29.89 in WNW 13.2 mph 17.3 mph 63 % 0.00 in
06:52 24.6 °F 13.8 °F 29.88 in West 8.5 mph 17.3 mph 63 % 0.00 in
06:57 24.6 °F 13.8 °F 29.88 in NW 10.8 mph 19.6 mph 63 % 0.00 in
07:02 24.6 °F 13.8 °F 29.88 in West 10.2 mph 26.5 mph 63 % 0.00 in
07:13 24.5 °F 13.3 °F 29.89 in WNW 7.7 mph 17.3 mph 62 % 0.00 in
07:18 24.4 °F 12.9 °F 29.89 in WNW 14.7 mph 23.0 mph 61 % 0.00 in
07:23 24.4 °F 12.9 °F 29.89 in West 9.1 mph 13.8 mph 61 % 0.00 in
07:28 24.4 °F 13.2 °F 29.90 in WSW 10.4 mph 23.0 mph 62 % 0.00 in
07:33 24.4 °F 13.2 °F 29.90 in WNW 8.8 mph 17.0 mph 62 % 0.00 in
07:38 24.4 °F 13.2 °F 29.91 in NW 8.6 mph 12.7 mph 62 % 0.00 in
07:43 24.4 °F 13.2 °F 29.91 in SW 8.1 mph 18.0 mph 62 % 0.00 in
07:48 24.5 °F 13.3 °F 29.91 in West 10.0 mph 12.7 mph 62 % 0.00 in
07:53 24.5 °F 13.3 °F 29.90 in West 11.0 mph 15.0 mph 62 % 0.00 in
07:58 24.5 °F 13.0 °F 29.91 in SW 7.5 mph 11.5 mph 61 % 0.00 in
08:04 24.5 °F 13.3 °F 29.91 in SW 11.5 mph 15.0 mph 62 % 0.00 in
08:09 24.5 °F 13.3 °F 29.92 in SW 7.6 mph 16.1 mph 62 % 0.00 in
08:14 24.6 °F 13.1 °F 29.92 in WSW 11.3 mph 18.4 mph 61 % 0.00 in
08:19 24.7 °F 13.5 °F 29.93 in WSW 9.0 mph 16.1 mph 62 % 0.00 in
08:34 24.8 °F 13.2 °F 29.92 in NW 9.7 mph 18.4 mph 61 % 0.00 in
08:39 24.9 °F 13.0 °F 29.92 in NW 7.9 mph 15.0 mph 60 % 0.00 in
08:44 24.9 °F 13.0 °F 29.92 in WNW 10.9 mph 13.0 mph 60 % 0.00 in
08:49 25.1 °F 13.2 °F 29.93 in WSW 10.9 mph 19.6 mph 60 % 0.00 in
08:55 25.1 °F 13.5 °F 29.93 in WSW 10.4 mph 14.0 mph 61 % 0.00 in
09:00 25.2 °F 12.9 °F 29.93 in WSW 10.3 mph 25.3 mph 59 % 0.00 in
09:05 25.3 °F 13.3 °F 29.93 in WSW 11.5 mph 17.3 mph 60 % 0.00 in
09:10 25.4 °F 13.4 °F 29.93 in South 9.0 mph 17.3 mph 60 % 0.00 in
09:15 25.6 °F 13.2 °F 29.93 in WSW 8.3 mph 11.5 mph 59 % 0.00 in
09:20 25.7 °F 12.6 °F 29.94 in NW 7.5 mph 17.3 mph 57 % 0.00 in
09:25 25.7 °F 12.2 °F 29.94 in WNW 14.2 mph 24.0 mph 56 % 0.00 in
09:30 25.7 °F 11.7 °F 29.94 in SW 6.9 mph 13.8 mph 55 % 0.00 in
09:35 25.8 °F 12.2 °F 29.94 in WSW 6.7 mph 12.7 mph 56 % 0.00 in
09:40 25.9 °F 12.7 °F 29.94 in WSW 12.1 mph 16.0 mph 57 % 0.00 in
09:46 26.0 °F 12.0 °F 29.95 in WSW 9.1 mph 17.3 mph 55 % 0.00 in
09:51 26.2 °F 12.2 °F 29.94 in WNW 7.7 mph 13.8 mph 55 % 0.00 in
09:56 26.3 °F 11.5 °F 29.95 in West 11.2 mph 23.0 mph 53 % 0.00 in
10:01 26.4 °F 11.6 °F 29.95 in WSW 8.4 mph 17.3 mph 53 % 0.00 in
10:06 26.5 °F 11.7 °F 29.95 in West 8.7 mph 22.0 mph 53 % 0.00 in
10:11 26.7 °F 11.8 °F 29.95 in SW 3.4 mph 11.0 mph 53 % 0.00 in
10:16 26.9 °F 12.0 °F 29.95 in NW 7.7 mph 12.7 mph 53 % 0.00 in
10:21 27.1 °F 11.8 °F 29.95 in SW 8.8 mph 13.8 mph 52 % 0.00 in
10:26 27.3 °F 11.5 °F 29.96 in WNW 12.0 mph 21.9 mph 51 % 0.00 in
10:31 27.4 °F 11.6 °F 29.96 in West 6.0 mph 19.6 mph 51 % 0.00 in
10:37 27.5 °F 11.7 °F 29.96 in West 8.2 mph 19.6 mph 51 % 0.00 in
10:42 27.6 °F 11.4 °F 29.96 in WSW 9.2 mph 13.8 mph 50 % 0.00 in
10:47 27.4 °F 11.6 °F 29.96 in WNW 10.3 mph 19.6 mph 51 % 0.00 in
10:52 27.5 °F 12.2 °F 29.96 in SSW 7.6 mph 12.7 mph 52 % 0.00 in
10:57 27.7 °F 11.9 °F 29.96 in West 8.1 mph 12.7 mph 51 % 0.00 in
11:07 27.8 °F 11.1 °F 29.95 in NW 6.4 mph 18.4 mph 49 % 0.00 in
11:12 27.9 °F 11.6 °F 29.95 in WNW 10.9 mph 20.7 mph 50 % 0.00 in
11:17 27.9 °F 11.2 °F 29.95 in West 13.3 mph 26.0 mph 49 % 0.00 in
11:22 27.9 °F 11.2 °F 29.95 in NW 6.9 mph 13.8 mph 49 % 0.00 in
11:28 27.9 °F 11.6 °F 29.94 in SW 7.9 mph 21.0 mph 50 % 0.00 in
11:33 28.0 °F 11.3 °F 29.94 in WNW 4.4 mph 15.0 mph 49 % 0.00 in
11:38 28.0 °F 11.7 °F 29.94 in WSW 6.1 mph 11.5 mph 50 % 0.00 in
11:43 28.1 °F 11.4 °F 29.94 in West 8.7 mph 16.1 mph 49 % 0.00 in
11:48 28.2 °F 11.9 °F 29.94 in NW 9.1 mph 19.6 mph 50 % 0.00 in
11:53 28.3 °F 12.0 °F 29.94 in NW 9.5 mph 19.6 mph 50 % 0.00 in
11:58 28.4 °F 11.6 °F 29.94 in West 8.8 mph 19.6 mph 49 % 0.00 in
12:03 28.5 °F 11.3 °F 29.93 in NW 7.2 mph 17.3 mph 48 % 0.00 in
12:13 28.8 °F 12.0 °F 29.93 in NW 7.9 mph 15.0 mph 49 % 0.00 in
12:19 29.0 °F 11.7 °F 29.93 in NW 5.8 mph 19.6 mph 48 % 0.00 in
12:24 29.0 °F 11.7 °F 29.93 in NW 9.8 mph 16.1 mph 48 % 0.00 in
12:29 28.9 °F 11.2 °F 29.93 in NW 10.5 mph 18.4 mph 47 % 0.00 in
12:34 29.0 °F 11.3 °F 29.93 in WSW 7.6 mph 17.0 mph 47 % 0.00 in
12:39 29.3 °F 12.0 °F 29.93 in WNW 8.9 mph 13.0 mph 48 % 0.00 in
12:44 29.6 °F 11.8 °F 29.93 in West 7.8 mph 13.8 mph 47 % 0.00 in
12:49 29.9 °F 12.1 °F 29.93 in WNW 6.3 mph 16.1 mph 47 % 0.00 in
12:54 30.1 °F 11.3 °F 29.93 in WNW 6.5 mph 12.7 mph 45 % 0.00 in
12:59 30.1 °F 12.7 °F 29.93 in North 2.8 mph 12.7 mph 48 % 0.00 in
13:04 30.2 °F 11.4 °F 29.92 in WNW 10.1 mph 11.0 mph 45 % 0.00 in
13:10 30.2 °F 11.4 °F 29.92 in NNW 7.1 mph 13.0 mph 45 % 0.00 in
13:15 30.2 °F 11.9 °F 29.92 in WNW 3.5 mph 11.0 mph 46 % 0.00 in
13:20 30.2 °F 11.9 °F 29.92 in WNW 11.1 mph 19.6 mph 46 % 0.00 in
13:25 30.1 °F 11.8 °F 29.91 in WNW 7.3 mph 13.8 mph 46 % 0.00 in
13:30 30.2 °F 11.9 °F 29.91 in WNW 8.6 mph 19.0 mph 46 % 0.00 in
13:35 30.1 °F 11.3 °F 29.91 in NW 6.2 mph 15.0 mph 45 % 0.00 in
13:40 30.1 °F 10.8 °F 29.91 in NW 6.9 mph 12.7 mph 44 % 0.00 in
13:45 30.0 °F 10.7 °F 29.91 in WSW 8.9 mph 12.7 mph 44 % 0.00 in
13:50 29.9 °F 11.1 °F 29.90 in NW 9.4 mph 12.7 mph 45 % 0.00 in
13:55 30.0 °F 11.7 °F 29.91 in WNW 7.6 mph 15.0 mph 46 % 0.00 in
14:06 29.9 °F 12.1 °F 29.91 in WNW 6.7 mph 16.1 mph 47 % 0.00 in
14:11 30.0 °F 11.7 °F 29.90 in WSW 7.6 mph 13.8 mph 46 % 0.00 in
14:16 30.0 °F 10.7 °F 29.91 in West 9.3 mph 17.3 mph 44 % 0.00 in
14:21 29.9 °F 10.6 °F 29.91 in WNW 7.2 mph 13.8 mph 44 % 0.00 in
14:26 29.7 °F 10.4 °F 29.90 in WNW 6.7 mph 10.4 mph 44 % 0.00 in
14:31 29.6 °F 10.3 °F 29.91 in WNW 3.5 mph 11.5 mph 44 % 0.00 in
14:36 29.5 °F 10.7 °F 29.90 in NW 5.2 mph 11.5 mph 45 % 0.00 in
14:41 29.4 °F 10.6 °F 29.90 in NNW 5.6 mph 11.5 mph 45 % 0.00 in
14:46 29.3 °F 11.1 °F 29.91 in SW 7.7 mph 11.0 mph 46 % 0.00 in
14:57 29.1 °F 10.9 °F 29.91 in NW 6.4 mph 11.0 mph 46 % 0.00 in
15:02 29.0 °F 10.8 °F 29.92 in WSW 5.6 mph 10.4 mph 46 % 0.00 in
15:07 29.0 °F 10.8 °F 29.92 in NNW 6.1 mph 12.7 mph 46 % 0.00 in
15:12 28.9 °F 10.7 °F 29.92 in WNW 1.6 mph 9.0 mph 46 % 0.00 in
15:22 29.0 °F 10.3 °F 29.92 in WNW 4.9 mph 10.0 mph 45 % 0.00 in
15:27 28.9 °F 10.7 °F 29.92 in NNW 6.1 mph 10.4 mph 46 % 0.00 in
15:32 28.9 °F 10.2 °F 29.92 in West 4.5 mph 11.5 mph 45 % 0.00 in
15:37 28.8 °F 9.6 °F 29.92 in South 3.9 mph 11.5 mph 44 % 0.00 in
15:48 28.7 °F 10.0 °F 29.93 in WSW 6.9 mph 12.7 mph 45 % 0.00 in
15:53 28.7 °F 11.0 °F 29.92 in WNW 3.0 mph 10.4 mph 47 % 0.00 in
15:58 28.7 °F 11.0 °F 29.92 in WNW 6.3 mph 12.7 mph 47 % 0.00 in
16:03 28.5 °F 10.3 °F 29.92 in WNW 6.3 mph 12.7 mph 46 % 0.00 in
16:08 28.5 °F 10.8 °F 29.93 in West 6.4 mph 12.0 mph 47 % 0.00 in
16:13 28.4 °F 10.2 °F 29.93 in WNW 5.6 mph 12.7 mph 46 % 0.00 in
16:18 28.3 °F 9.6 °F 29.93 in West 5.3 mph 8.1 mph 45 % 0.00 in
16:23 28.2 °F 9.5 °F 29.93 in WSW 4.3 mph 13.8 mph 45 % 0.00 in
16:28 28.1 °F 9.9 °F 29.93 in WNW 4.5 mph 9.2 mph 46 % 0.00 in
16:34 28.0 °F 10.3 °F 29.93 in West 5.0 mph 12.0 mph 47 % 0.00 in
16:39 28.0 °F 10.8 °F 29.93 in WNW 4.7 mph 9.2 mph 48 % 0.00 in
16:44 28.0 °F 10.8 °F 29.93 in NW 6.7 mph 12.7 mph 48 % 0.00 in
16:54 27.9 °F 10.7 °F 29.93 in WSW 4.2 mph 6.9 mph 48 % 0.00 in
17:04 27.7 °F 10.5 °F 29.92 in WSW 7.0 mph 15.0 mph 48 % 0.00 in
17:09 27.6 °F 10.4 °F 29.93 in West 3.6 mph 12.7 mph 48 % 0.00 in
17:14 27.6 °F 10.0 °F 29.94 in West 6.8 mph 11.5 mph 47 % 0.00 in
17:19 27.5 °F 10.4 °F 29.94 in WNW 5.6 mph 13.0 mph 48 % 0.00 in
17:25 27.5 °F 10.4 °F 29.94 in WNW 7.5 mph 8.0 mph 48 % 0.00 in
17:30 27.5 °F 11.3 °F 29.94 in WNW 1.9 mph 6.9 mph 50 % 0.00 in
17:35 27.5 °F 11.3 °F 29.94 in NW 2.0 mph 5.8 mph 50 % 0.00 in
17:40 27.4 °F 11.6 °F 29.94 in SW 4.1 mph 8.1 mph 51 % 0.00 in
17:45 27.4 °F 10.7 °F 29.95 in WNW 5.1 mph 10.4 mph 49 % 0.00 in
17:50 27.3 °F 11.1 °F 29.95 in WSW 5.9 mph 11.5 mph 50 % 0.00 in
17:55 27.3 °F 11.1 °F 29.96 in NW 5.7 mph 11.5 mph 50 % 0.00 in
18:00 27.3 °F 11.1 °F 29.96 in WSW 7.6 mph 11.5 mph 50 % 0.00 in
18:05 27.2 °F 10.5 °F 29.96 in WSW 7.7 mph 17.3 mph 49 % 0.00 in
18:11 27.2 °F 9.6 °F 29.96 in West 7.4 mph 16.1 mph 47 % 0.00 in
18:16 27.2 °F 9.6 °F 29.97 in SW 6.9 mph 10.4 mph 47 % 0.00 in
18:21 27.1 °F 9.5 °F 29.97 in West 5.4 mph 17.3 mph 47 % 0.00 in
18:26 27.1 °F 9.5 °F 29.97 in WSW 9.6 mph 15.0 mph 47 % 0.00 in
18:31 27.1 °F 9.5 °F 29.97 in SW 5.5 mph 8.1 mph 47 % 0.00 in
18:36 27.1 °F 10.4 °F 29.97 in West 3.8 mph 8.0 mph 49 % 0.00 in
18:41 27.0 °F 10.4 °F 29.97 in NW 5.9 mph 12.7 mph 49 % 0.00 in
18:46 26.9 °F 10.3 °F 29.97 in West 4.4 mph 5.8 mph 49 % 0.00 in
18:51 26.9 °F 10.7 °F 29.97 in SW 4.4 mph 9.2 mph 50 % 0.00 in
18:56 26.9 °F 10.7 °F 29.98 in WNW 8.8 mph 13.8 mph 50 % 0.00 in
19:02 26.9 °F 9.8 °F 29.98 in NW 7.5 mph 12.7 mph 48 % 0.00 in
19:07 26.9 °F 9.8 °F 29.98 in West 4.2 mph 13.8 mph 48 % 0.00 in
19:12 26.9 °F 9.8 °F 29.99 in WNW 5.7 mph 11.5 mph 48 % 0.00 in
19:17 26.8 °F 10.2 °F 29.99 in West 6.1 mph 11.5 mph 49 % 0.00 in
19:22 26.8 °F 9.7 °F 29.99 in WNW 6.4 mph 16.1 mph 48 % 0.00 in
19:32 26.9 °F 10.7 °F 29.99 in WNW 6.7 mph 13.8 mph 50 % 0.00 in
19:37 26.9 °F 10.3 °F 29.99 in WNW 5.5 mph 10.4 mph 49 % 0.00 in
19:42 26.8 °F 10.2 °F 29.99 in WNW 10.8 mph 12.0 mph 49 % 0.00 in
19:47 26.8 °F 9.7 °F 29.99 in West 6.0 mph 11.5 mph 48 % 0.00 in
19:58 26.7 °F 10.1 °F 29.98 in WSW 5.5 mph 8.0 mph 49 % 0.00 in
20:03 26.7 °F 10.1 °F 29.98 in SSW 4.0 mph 5.8 mph 49 % 0.00 in
20:08 26.7 °F 10.5 °F 29.98 in WSW 1.2 mph 4.6 mph 50 % 0.00 in
20:13 26.6 °F 10.0 °F 29.98 in WNW 3.5 mph 11.5 mph 49 % 0.00 in
20:18 26.5 °F 10.3 °F 29.98 in NW 6.3 mph 9.2 mph 50 % 0.00 in
20:23 26.5 °F 10.3 °F 29.98 in WSW 6.7 mph 11.5 mph 50 % 0.00 in
20:28 26.5 °F 10.8 °F 29.98 in WNW 5.0 mph 8.1 mph 51 % 0.00 in
20:33 26.4 °F 10.7 °F 29.98 in WSW 5.1 mph 10.0 mph 51 % 0.00 in
20:38 26.4 °F 10.7 °F 29.98 in WNW 4.2 mph 8.1 mph 51 % 0.00 in
20:44 26.4 °F 11.1 °F 29.98 in WSW 7.3 mph 13.8 mph 52 % 0.00 in
20:49 26.3 °F 11.5 °F 29.98 in WSW 5.9 mph 9.2 mph 53 % 0.00 in
20:54 26.3 °F 11.9 °F 29.98 in SW 2.6 mph 5.8 mph 54 % 0.00 in
20:59 26.3 °F 12.3 °F 29.97 in SW 3.8 mph 8.1 mph 55 % 0.00 in
21:04 26.2 °F 11.8 °F 29.97 in West 3.2 mph 8.0 mph 54 % 0.00 in
21:09 26.1 °F 12.1 °F 29.97 in NW 5.0 mph 10.4 mph 55 % 0.00 in
21:14 26.1 °F 12.5 °F 29.97 in WSW 4.1 mph 8.1 mph 56 % 0.00 in
21:19 26.0 °F 12.4 °F 29.97 in WSW 4.6 mph 8.1 mph 56 % 0.00 in
21:24 25.9 °F 12.7 °F 29.97 in West 1.1 mph 3.5 mph 57 % 0.00 in
21:35 25.7 °F 12.2 °F 29.97 in WSW 5.4 mph 11.5 mph 56 % 0.00 in
21:40 25.6 °F 12.1 °F 29.97 in WNW 6.6 mph 11.5 mph 56 % 0.00 in
21:45 25.6 °F 12.1 °F 29.97 in WSW 5.1 mph 9.2 mph 56 % 0.00 in
21:50 25.5 °F 11.6 °F 29.97 in West 4.7 mph 11.5 mph 55 % 0.00 in
22:00 25.4 °F 11.5 °F 29.97 in WSW 6.0 mph 11.5 mph 55 % 0.00 in
22:05 25.3 °F 11.8 °F 29.97 in WSW 7.8 mph 13.8 mph 56 % 0.00 in
22:10 25.3 °F 11.8 °F 29.97 in WNW 4.5 mph 11.5 mph 56 % 0.00 in
22:15 25.2 °F 11.7 °F 29.98 in WSW 5.7 mph 11.5 mph 56 % 0.00 in
22:20 25.2 °F 11.7 °F 29.98 in WSW 3.6 mph 11.5 mph 56 % 0.00 in
22:26 25.2 °F 12.1 °F 29.98 in WNW 3.6 mph 6.9 mph 57 % 0.00 in
22:31 25.2 °F 11.7 °F 29.98 in WNW 7.1 mph 10.0 mph 56 % 0.00 in
22:36 25.3 °F 11.8 °F 29.98 in WNW 7.6 mph 14.0 mph 56 % 0.00 in
22:41 25.2 °F 11.7 °F 29.98 in WNW 4.1 mph 8.1 mph 56 % 0.00 in
22:46 25.3 °F 11.8 °F 29.98 in West 3.9 mph 7.0 mph 56 % 0.00 in
22:56 25.2 °F 11.7 °F 29.98 in SW 5.7 mph 11.5 mph 56 % 0.00 in
23:01 25.2 °F 11.7 °F 29.98 in West 4.3 mph 8.1 mph 56 % 0.00 in
23:06 25.2 °F 11.7 °F 29.98 in West 4.1 mph 11.5 mph 56 % 0.00 in
23:11 25.2 °F 11.7 °F 29.98 in WNW 4.5 mph 8.1 mph 56 % 0.00 in
23:17 25.2 °F 11.7 °F 29.98 in WSW 2.9 mph 4.0 mph 56 % 0.00 in
23:22 25.2 °F 11.7 °F 29.98 in WNW 3.6 mph 10.4 mph 56 % 0.00 in
23:27 25.2 °F 12.1 °F 29.98 in West 2.4 mph 3.5 mph 57 % 0.00 in
23:32 25.1 °F 12.0 °F 29.97 in WSW 5.4 mph 9.0 mph 57 % 0.00 in
23:37 25.1 °F 12.0 °F 29.97 in West 4.7 mph 8.1 mph 57 % 0.00 in
23:42 25.1 °F 12.0 °F 29.97 in South 3.6 mph 6.9 mph 57 % 0.00 in
23:47 25.1 °F 11.6 °F 29.97 in WSW 4.6 mph 6.9 mph 56 % 0.00 in
23:52 25.0 °F 11.9 °F 29.97 in SSW 4.0 mph 6.9 mph 57 % 0.00 in
23:57 24.9 °F 11.4 °F 29.96 in SW 5.2 mph 7.0 mph 56 % 0.00 in
Crab Meadow Weather
Compliments of Weather Underground - 3 mb

Script developed by  Jim McMurry - jmcmurry@mwt.net Adapted for the template by  Wim van der Kuil - Leuven-Template.eu

Lightning: Lightning can strike the same place twice and sometimes many times. The Empire State Building in New York City is struck an average of 23 times a year. During one thunderstorm it was struck 8 times in 24 minutes.